Pride Of Bruges — PGJW — position and weather

sailwx.info

Track history (hours):
 
Tides and Currents Weather Stations Pressure Air Temp Water Temp Dewpoint Dewpoint Depression Visibility Wind Speed Wind Dir Waves Ship Positions

Pride Of Bruges

Operator: P&O Ferries

Last reported at 2017-Aug-18 10:28 UTC. Time now 2017-Aug-18 10:51 UTC.
Position N 53°45' W 000°16'.

Length 180 m; draft 5.7 m.

Type: Ship. MMSI: 244387000.

Date/timePositionNaut miles runAvg speedWind from/ knotsBaromVisibWave heightAir tempDewpointWater temp
2017-Aug-18 10:28N 53°45' W 000°16'0 0.0
2017-Aug-18 09:58N 53°45' W 000°16'0 0.0
2017-Aug-18 09:28N 53°45' W 000°16'0 0.0
2017-Aug-18 08:58N 53°45' W 000°16'0 0.0
2017-Aug-18 08:30N 53°45' W 000°16'0 0.0
2017-Aug-18 08:00N 53°45' W 000°16'0 0.0
2017-Aug-18 07:30N 53°45' W 000°16'0 0.2
2017-Aug-18 07:00N 53°44' W 000°16'0 0.3
2017-Aug-18 06:30N 53°44' W 000°16'611.2
2017-Aug-18 06:00N 53°39' W 000°12'612.0
2017-Aug-18 05:30N 53°36' W 000°03'712.9
2017-Aug-18 04:59N 53°34' E 000°07'4014.2
2017-Aug-18 02:11N 53°16' E 001°07'213.2
2017-Aug-18 02:00N 53°15' E 001°10'612.9
2017-Aug-18 01:30N 53°10' E 001°17'713.6
2017-Aug-18 01:00N 53°04' E 001°24'714.4
2017-Aug-18 00:30N 52°59' E 001°32'815.3
2017-Aug-18 00:00N 52°54' E 001°41'816.0
2017-Aug-17 23:30N 52°49' E 001°51'816.3
2017-Aug-17 23:00N 52°42' E 001°58'816.4
2017-Aug-17 22:30N 52°34' E 002°05'4017.0
2017-Aug-17 20:08N 51°57' E 002°30'316.6
2017-Aug-17 19:56N 51°54' E 002°31'1816.0
2017-Aug-17 18:50N 51°38' E 002°45'515.7
2017-Aug-17 18:30N 51°34' E 002°50'815.6
2017-Aug-17 18:00N 51°28' E 002°57'714.6
2017-Aug-17 17:30N 51°24' E 003°07'5 9.0
2017-Aug-17 17:00N 51°20' E 003°11'0 0.0
2017-Aug-17 16:29N 51°20' E 003°11'0 0.0
2017-Aug-17 15:58N 51°20' E 003°11'0 0.0
2017-Aug-17 15:28N 51°20' E 003°11'0 0.0
2017-Aug-17 14:58N 51°20' E 003°11'0 0.0
2017-Aug-17 14:28N 51°20' E 003°11'0 0.0
2017-Aug-17 14:00N 51°20' E 003°11'0 0.0
2017-Aug-17 13:30N 51°20' E 003°11'0 0.0
2017-Aug-17 13:00N 51°20' E 003°11'0 0.0
2017-Aug-17 12:30N 51°20' E 003°11'0 0.0
2017-Aug-17 12:00N 51°20' E 003°11'0 0.0
2017-Aug-17 11:29N 51°20' E 003°11'0 0.0
2017-Aug-17 10:56N 51°20' E 003°11'0 0.0
2017-Aug-17 10:29N 51°20' E 003°11'0 0.0
2017-Aug-17 09:59N 51°20' E 003°11'0 0.0
2017-Aug-17 09:29N 51°20' E 003°11'0 0.0
2017-Aug-17 08:58N 51°20' E 003°11'0 0.0
2017-Aug-17 08:28N 51°20' E 003°11'0 0.0
2017-Aug-17 07:58N 51°20' E 003°11'0 0.0
2017-Aug-17 07:28N 51°20' E 003°11'2 4.3
2017-Aug-17 07:00N 51°22' E 003°11'917.1
2017-Aug-17 06:30N 51°26' E 002°59'817.0
2017-Aug-17 06:00N 51°32' E 002°48'816.4
2017-Aug-17 05:30N 51°38' E 002°40'816.7
2017-Aug-17 05:00N 51°46' E 002°36'1117.2
2017-Aug-17 04:20N 51°57' E 002°29'617.4
2017-Aug-17 04:00N 52°02' E 002°25'2017.4
2017-Aug-17 02:53N 52°20' E 002°14'817.6
2017-Aug-17 02:25N 52°28' E 002°10'717.3
2017-Aug-17 02:00N 52°35' E 002°06'917.6
2017-Aug-17 01:30N 52°43' E 002°00'816.9
2017-Aug-17 01:00N 52°49' E 001°50'917.3
2017-Aug-17 00:30N 52°52' E 001°37'917.3
2017-Aug-17 00:00N 52°57' E 001°25'917.3
2017-Aug-16 23:30N 53°00' E 001°12'916.4
2017-Aug-16 22:58N 53°06' E 000°60'3516.5
2017-Aug-16 20:51N 53°30' E 000°19'815.1
2017-Aug-16 20:20N 53°34' E 000°07'514.7
2017-Aug-16 20:00N 53°35' W 000°01'713.8
2017-Aug-16 19:30N 53°38' W 000°11'713.3
2017-Aug-16 19:00N 53°44' W 000°17'0 0.6
2017-Aug-16 18:30N 53°45' W 000°16'0 0.1
2017-Aug-16 18:00N 53°45' W 000°16'0 0.0
2017-Aug-16 17:29N 53°45' W 000°16'0 0.0
2017-Aug-16 16:59N 53°45' W 000°16'0 0.0
2017-Aug-16 16:29N 53°45' W 000°16'0 0.0
2017-Aug-16 15:58N 53°45' W 000°16'0 0.0
2017-Aug-16 15:28N 53°45' W 000°16'0 0.0
2017-Aug-16 14:58N 53°45' W 000°16'0 0.0
2017-Aug-16 14:28N 53°45' W 000°16'0 0.0
2017-Aug-16 13:58N 53°45' W 000°16'0 0.0
2017-Aug-16 13:30N 53°45' W 000°16'0 0.0
2017-Aug-16 13:00N 53°45' W 000°16'0 0.0
2017-Aug-16 12:30N 53°45' W 000°16'0 0.0
2017-Aug-16 12:00N 53°45' W 000°16'0 0.0
2017-Aug-16 11:29N 53°45' W 000°16'0 0.0
2017-Aug-16 10:59N 53°45' W 000°16'0 0.0
2017-Aug-16 10:30N 53°45' W 000°16'0 0.0
2017-Aug-16 10:00N 53°45' W 000°16'0 0.0
2017-Aug-16 09:30N 53°45' W 000°16'0 0.0
2017-Aug-16 09:00N 53°45' W 000°16'0 0.0
2017-Aug-16 08:30N 53°45' W 000°16'0 0.0
2017-Aug-16 08:00N 53°45' W 000°16'0 0.0
2017-Aug-16 07:30N 53°45' W 000°16'0 0.3
2017-Aug-16 07:00N 53°44' W 000°16'0 0.3
2017-Aug-16 06:30N 53°44' W 000°17'5 9.7
2017-Aug-16 06:00N 53°40' W 000°13'612.0
2017-Aug-16 05:30N 53°37' W 000°04'713.8
2017-Aug-16 05:00N 53°34' E 000°06'714.3
2017-Aug-16 04:30N 53°33' E 000°19'714.1
2017-Aug-16 04:00N 53°31' E 000°30'2014.7
2017-Aug-16 02:40N 53°21' E 000°58'314.3
2017-Aug-16 02:28N 53°19' E 001°02'714.1
2017-Aug-16 01:59N 53°14' E 001°09'713.8
2017-Aug-16 01:29N 53°09' E 001°17'613.2
2017-Aug-16 01:00N 53°04' E 001°24'612.6
2017-Aug-16 00:30N 52°59' E 001°31'612.4
2017-Aug-16 00:00N 52°55' E 001°38'713.0
2017-Aug-15 23:30N 52°51' E 001°47'713.7
2017-Aug-15 23:00N 52°46' E 001°54'714.4
2017-Aug-15 22:30N 52°40' E 002°02'815.2
2017-Aug-15 22:00N 52°34' E 002°08'815.7
2017-Aug-15 21:30N 52°27' E 002°14'816.0
2017-Aug-15 21:01N 52°19' E 002°18'1916.2
2017-Aug-15 19:49N 52°01' E 002°29'516.5
2017-Aug-15 19:31N 51°56' E 002°33'816.9
2017-Aug-15 19:00N 51°48' E 002°36'917.1
2017-Aug-15 18:31N 51°41' E 002°42'816.6
2017-Aug-15 18:01N 51°34' E 002°50'816.5
2017-Aug-15 17:31N 51°28' E 002°58'714.3
2017-Aug-15 17:01N 51°24' E 003°08'4 7.9
2017-Aug-15 16:30N 51°20' E 003°11'0 0.0
2017-Aug-15 16:00N 51°20' E 003°11'0 0.0
2017-Aug-15 15:30N 51°20' E 003°11'0 0.0
2017-Aug-15 14:59N 51°20' E 003°11'0 0.0
2017-Aug-15 14:29N 51°20' E 003°11'0 0.0
2017-Aug-15 13:59N 51°20' E 003°11'0 0.0
2017-Aug-15 13:29N 51°20' E 003°11'0 0.0
2017-Aug-15 12:59N 51°20' E 003°11'0 0.0
2017-Aug-15 12:28N 51°20' E 003°11'0 0.0
2017-Aug-15 11:58N 51°20' E 003°11'0 0.0
2017-Aug-15 11:28N 51°20' E 003°11'0 0.0
2017-Aug-15 10:55N 51°20' E 003°11'0 0.0
2017-Aug-15 10:30N 51°20' E 003°11'0 0.0
2017-Aug-15 10:00N 51°20' E 003°11'0 0.0
2017-Aug-15 09:30N 51°20' E 003°11'0 0.0
2017-Aug-15 09:00N 51°20' E 003°11'0 0.0
2017-Aug-15 08:30N 51°20' E 003°11'0 0.0
2017-Aug-15 07:59N 51°20' E 003°11'0 0.0
2017-Aug-15 07:29N 51°20' E 003°11'0 0.0
2017-Aug-15 06:59N 51°20' E 003°11'1 1.9
2017-Aug-15 06:31N 51°21' E 003°12'714.6
2017-Aug-15 06:00N 51°25' E 003°02'815.8
2017-Aug-15 05:30N 51°29' E 002°52'815.2
2017-Aug-15 05:01N 51°35' E 002°43'714.2
2017-Aug-15 04:30N 51°41' E 002°39'714.5
2017-Aug-15 04:00N 51°48' E 002°36'714.7
2017-Aug-15 03:30N 51°55' E 002°31'714.9
2017-Aug-15 03:00N 52°02' E 002°26'714.9
2017-Aug-15 02:30N 52°08' E 002°21'815.9
2017-Aug-15 02:00N 52°16' E 002°16'816.0
2017-Aug-15 01:30N 52°23' E 002°11'816.2
2017-Aug-15 01:00N 52°31' E 002°06'816.5
2017-Aug-15 00:30N 52°38' E 001°60'817.0
2017-Aug-15 00:00N 52°45' E 001°53'917.8
2017-Aug-14 23:30N 52°51' E 001°41'917.6
2017-Aug-14 23:00N 52°55' E 001°28'917.5
2017-Aug-14 22:30N 52°59' E 001°16'917.2
2017-Aug-14 22:00N 53°04' E 001°03'4116.8
2017-Aug-14 19:33N 53°32' E 000°14'114.5
2017-Aug-14 19:29N 53°33' E 000°12'714.1
2017-Aug-14 19:00N 53°35' E 000°02'713.7
2017-Aug-14 18:30N 53°38' W 000°09'611.4
2017-Aug-14 18:00N 53°43' W 000°14'2 4.3
2017-Aug-14 17:30N 53°44' W 000°16'0 0.3
2017-Aug-14 17:00N 53°45' W 000°16'0 0.0
2017-Aug-14 16:30N 53°45' W 000°16'0 0.0
2017-Aug-14 16:00N 53°45' W 000°16'0 0.0
2017-Aug-14 15:30N 53°45' W 000°16'0 0.0
2017-Aug-14 15:00N 53°45' W 000°16'0 0.0
2017-Aug-14 14:17N 53°45' W 000°16'0 0.0
2017-Aug-14 13:59N 53°45' W 000°16'0 0.0
2017-Aug-14 13:26N 53°45' W 000°16'0 0.0
2017-Aug-14 12:59N 53°45' W 000°16'0 0.0
2017-Aug-14 12:28N 53°45' W 000°16'0 0.0
2017-Aug-14 11:58N 53°45' W 000°16'0 0.0
2017-Aug-14 11:28N 53°45' W 000°16'0 0.0
2017-Aug-14 10:58N 53°45' W 000°16'0 0.0
2017-Aug-14 10:28N 53°45' W 000°16'0 0.0
2017-Aug-14 10:00N 53°45' W 000°16'0 0.0
2017-Aug-14 09:30N 53°45' W 000°16'0 0.0
2017-Aug-14 09:00N 53°45' W 000°16'0 0.0
2017-Aug-14 08:30N 53°45' W 000°16'0 0.0
2017-Aug-14 07:59N 53°45' W 000°16'0 0.0
2017-Aug-14 07:29N 53°45' W 000°16'0 0.2
2017-Aug-14 07:00N 53°45' W 000°16'1 2.1
2017-Aug-14 06:30N 53°44' W 000°15'714.6
2017-Aug-14 06:00N 53°38' W 000°08'917.0
2017-Aug-14 05:30N 53°34' E 000°05'816.2
2017-Aug-14 05:00N 53°33' E 000°19'714.9
2017-Aug-14 04:30N 53°30' E 000°30'1514.4
2017-Aug-14 03:27N 53°23' E 000°52'913.8
2017-Aug-14 02:48N 53°18' E 001°05'413.4
2017-Aug-14 02:30N 53°15' E 001°09'713.0
2017-Aug-14 02:00N 53°10' E 001°16'613.1
2017-Aug-14 01:30N 53°05' E 001°24'612.8
2017-Aug-14 01:00N 53°00' E 001°31'713.0
2017-Aug-14 00:30N 52°55' E 001°38'612.8
2017-Aug-14 00:00N 52°51' E 001°45'612.7
2017-Aug-13 23:30N 52°46' E 001°52'813.0
2017-Aug-13 22:55N 52°40' E 002°00'613.4
2017-Aug-13 22:30N 52°36' E 002°06'713.9
2017-Aug-13 22:00N 52°30' E 002°11'814.7
2017-Aug-13 21:29N 52°23' E 002°17'815.4
2017-Aug-13 20:58N 52°15' E 002°19'715.8
2017-Aug-13 20:30N 52°08' E 002°23'2916.2
2017-Aug-13 18:43N 51°41' E 002°41'516.2
2017-Aug-13 18:26N 51°37' E 002°45'715.8
2017-Aug-13 18:01N 51°32' E 002°52'815.7
2017-Aug-13 17:31N 51°26' E 002°59'714.6
2017-Aug-13 17:01N 51°23' E 003°10'3 5.3
2017-Aug-13 16:31N 51°20' E 003°11'0 0.0
2017-Aug-13 15:58N 51°20' E 003°11'0 0.0
2017-Aug-13 15:30N 51°20' E 003°11'0 0.0
2017-Aug-13 15:00N 51°20' E 003°11'0 0.0
2017-Aug-13 14:30N 51°20' E 003°11'0 0.0
2017-Aug-13 14:00N 51°20' E 003°11'0 0.0
2017-Aug-13 13:29N 51°20' E 003°11'0 0.0
2017-Aug-13 12:59N 51°20' E 003°11'0 0.0
2017-Aug-13 12:29N 51°20' E 003°11'0 0.0
2017-Aug-13 11:59N 51°20' E 003°11'0 0.0
2017-Aug-13 11:29N 51°20' E 003°11'0 0.0
2017-Aug-13 10:58N 51°20' E 003°11'0 0.0
2017-Aug-13 10:28N 51°20' E 003°11'0 0.0
2017-Aug-13 09:58N 51°20' E 003°11'0 0.0
2017-Aug-13 09:28N 51°20' E 003°11'0 0.0
2017-Aug-13 08:58N 51°20' E 003°11'0 0.0
2017-Aug-13 08:30N 51°20' E 003°11'0 0.0
2017-Aug-13 08:00N 51°20' E 003°11'0 0.0
2017-Aug-13 07:30N 51°20' E 003°11'1 1.9
2017-Aug-13 07:00N 51°21' E 003°12'612.9
2017-Aug-13 06:30N 51°24' E 003°04'713.3
2017-Aug-13 06:00N 51°27' E 002°54'713.4
2017-Aug-13 05:30N 51°32' E 002°46'713.3
2017-Aug-13 05:00N 51°37' E 002°40'913.4
2017-Aug-13 04:19N 51°47' E 002°38'514.2
2017-Aug-13 03:59N 51°51' E 002°35'914.0
2017-Aug-13 03:23N 51°59' E 002°29'814.1
2017-Aug-13 02:47N 52°06' E 002°24'2515.5
2017-Aug-13 01:11N 52°29' E 002°08'316.3
2017-Aug-13 01:01N 52°32' E 002°06'816.1
2017-Aug-13 00:31N 52°39' E 002°00'816.2
2017-Aug-13 00:01N 52°46' E 001°52'816.6
2017-Aug-12 23:31N 52°50' E 001°41'816.6
2017-Aug-12 23:01N 52°55' E 001°30'816.6
2017-Aug-12 22:31N 52°59' E 001°18'816.5
2017-Aug-12 22:00N 53°03' E 001°05'5215.6
2017-Aug-12 18:41N 53°36' W 000°02'314.0
2017-Aug-12 18:27N 53°37' W 000°07'510.6
2017-Aug-12 18:00N 53°40' W 000°13'5 9.7
2017-Aug-12 17:30N 53°44' W 000°16'0 0.4
2017-Aug-12 17:00N 53°45' W 000°16'0 0.2
2017-Aug-12 16:28N 53°45' W 000°16'0 0.0
2017-Aug-12 15:58N 53°45' W 000°16'0 0.0
2017-Aug-12 15:31N 53°45' W 000°16'0 0.0
2017-Aug-12 15:00N 53°45' W 000°16'0 0.0
2017-Aug-12 14:30N 53°45' W 000°16'0 0.0
2017-Aug-12 14:00N 53°45' W 000°16'0 0.0
2017-Aug-12 13:30N 53°45' W 000°16'0 0.0
2017-Aug-12 12:59N 53°45' W 000°16'0 0.0
2017-Aug-12 12:29N 53°45' W 000°16'0 0.0
2017-Aug-12 11:59N 53°45' W 000°16'0 0.0
2017-Aug-12 11:29N 53°45' W 000°16'0 0.0
2017-Aug-12 10:59N 53°45' W 000°16'0 0.0
2017-Aug-12 10:28N 53°45' W 000°16'0 0.0
2017-Aug-12 09:58N 53°45' W 000°16'0 0.0
2017-Aug-12 09:28N 53°45' W 000°16'0 0.0
2017-Aug-12 08:58N 53°45' W 000°16'0 0.0
2017-Aug-12 08:30N 53°45' W 000°16'0 0.0
2017-Aug-12 08:00N 53°45' W 000°16'0 0.1
2017-Aug-12 07:30N 53°45' W 000°16'1 1.4
2017-Aug-12 07:00N 53°44' W 000°16'815.5
2017-Aug-12 06:30N 53°38' W 000°08'4514.6
2017-Aug-12 03:28N 53°20' E 001°00'816.2
2017-Aug-12 03:00N 53°14' E 001°09'816.3
2017-Aug-12 02:30N 53°08' E 001°18'816.0
2017-Aug-12 02:00N 53°02' E 001°27'815.5
2017-Aug-12 01:30N 52°57' E 001°36'714.7
2017-Aug-12 01:00N 52°52' E 001°45'714.4
2017-Aug-12 00:30N 52°47' E 001°54'713.1
2017-Aug-12 00:00N 52°42' E 002°01'713.0
2017-Aug-11 23:30N 52°36' E 002°05'2112.9
2017-Aug-11 21:51N 52°17' E 002°22'513.1
2017-Aug-11 21:30N 52°13' E 002°25'1013.3
2017-Aug-11 20:46N 52°04' E 002°31'1014.4
2017-Aug-11 20:03N 51°55' E 002°39'214.6
2017-Aug-11 19:53N 51°53' E 002°39'614.3
2017-Aug-11 19:30N 51°47' E 002°38'814.9
2017-Aug-11 18:59N 51°40' E 002°42'714.8
2017-Aug-11 18:30N 51°34' E 002°49'714.9
2017-Aug-11 18:01N 51°29' E 002°57'713.6
2017-Aug-11 17:30N 51°24' E 003°05'611.1
2017-Aug-11 17:00N 51°21' E 003°12'1 1.1
2017-Aug-11 16:30N 51°20' E 003°11'0 0.0
2017-Aug-11 16:00N 51°20' E 003°11'0 0.0
2017-Aug-11 15:29N 51°20' E 003°11'0 0.0
2017-Aug-11 14:59N 51°20' E 003°11'0 0.0
2017-Aug-11 14:29N 51°20' E 003°11'0 0.0
2017-Aug-11 13:29N 51°20' E 003°11'0 0.0
2017-Aug-11 12:59N 51°20' E 003°11'0 0.0
2017-Aug-11 12:28N 51°20' E 003°11'0 0.0
2017-Aug-11 11:58N 51°20' E 003°11'0 0.0
2017-Aug-11 11:28N 51°20' E 003°11'0 0.0
2017-Aug-11 11:00N 51°20' E 003°11'0 0.0
2017-Aug-11 10:30N 51°20' E 003°11'0 0.0
2017-Aug-11 10:00N 51°20' E 003°11'0 0.0
2017-Aug-11 09:30N 51°20' E 003°11'0 0.0
2017-Aug-11 09:00N 51°20' E 003°11'0 0.0
2017-Aug-11 08:29N 51°20' E 003°11'0 0.0
2017-Aug-11 07:59N 51°20' E 003°11'0 0.0
2017-Aug-11 07:29N 51°20' E 003°11'0 0.0
2017-Aug-11 06:59N 51°20' E 003°11'2 3.2
2017-Aug-11 06:30N 51°22' E 003°11'714.7
2017-Aug-11 06:00N 51°25' E 003°01'815.5
2017-Aug-11 05:30N 51°30' E 002°51'815.7
2017-Aug-11 05:00N 51°35' E 002°42'5615.0
2017-Aug-11 01:17N 52°28' E 002°10'516.3
2017-Aug-11 00:58N 52°32' E 002°06'816.5
2017-Aug-11 00:30N 52°39' E 001°60'918.0
2017-Aug-11 00:00N 52°46' E 001°51'918.8
2017-Aug-10 23:30N 52°52' E 001°38'918.7
2017-Aug-10 23:00N 52°57' E 001°26'918.9
2017-Aug-10 22:30N 53°01' E 001°11'4517.5
2017-Aug-10 19:57N 53°31' E 000°17'715.5
2017-Aug-10 19:30N 53°34' E 000°06'714.9
2017-Aug-10 19:00N 53°37' W 000°05'612.6
2017-Aug-10 18:30N 53°41' W 000°13'4 7.7
2017-Aug-10 18:00N 53°44' W 000°16'0 0.2
2017-Aug-10 17:28N 53°45' W 000°16'0 0.0
2017-Aug-10 17:00N 53°45' W 000°16'0 0.0
2017-Aug-10 16:30N 53°45' W 000°16'0 0.0
2017-Aug-10 16:00N 53°45' W 000°16'0 0.0
2017-Aug-10 15:30N 53°45' W 000°16'0 0.0
2017-Aug-10 15:00N 53°45' W 000°16'0 0.0
2017-Aug-10 14:29N 53°45' W 000°16'0 0.0
2017-Aug-10 13:29N 53°45' W 000°16'0 0.0
2017-Aug-10 12:59N 53°45' W 000°16'0 0.0
2017-Aug-10 12:29N 53°45' W 000°16'0 0.0
2017-Aug-10 11:58N 53°45' W 000°16'0 0.0
2017-Aug-10 11:28N 53°45' W 000°16'0 0.0
2017-Aug-10 10:58N 53°45' W 000°16'0 0.0
2017-Aug-10 10:28N 53°45' W 000°16'0 0.0
2017-Aug-10 10:00N 53°45' W 000°16'0 0.0
2017-Aug-10 09:30N 53°45' W 000°16'0 0.0
2017-Aug-10 09:00N 53°45' W 000°16'0 0.0
2017-Aug-10 08:30N 53°45' W 000°16'0 0.0
2017-Aug-10 08:00N 53°45' W 000°16'0 0.3
2017-Aug-10 07:30N 53°45' W 000°16'0 0.9
2017-Aug-10 07:00N 53°44' W 000°16'3 6.3
2017-Aug-10 06:30N 53°41' W 000°14'5 9.9
2017-Aug-10 06:00N 53°38' W 000°08'916.9
2017-Aug-10 05:29N 53°34' E 000°06'3713.5
2017-Aug-10 02:47N 53°19' E 001°01'415.4
2017-Aug-10 02:30N 53°16' E 001°06'816.3
2017-Aug-10 02:01N 53°09' E 001°15'816.3
2017-Aug-10 01:30N 53°03' E 001°24'816.0
2017-Aug-10 01:01N 52°58' E 001°33'815.5
2017-Aug-10 00:30N 52°53' E 001°43'714.3
2017-Aug-10 00:00N 52°47' E 001°51'714.0
2017-Aug-09 23:30N 52°42' E 001°59'713.5
2017-Aug-09 23:00N 52°37' E 002°05'5313.5
2017-Aug-09 19:07N 51°48' E 002°37'315.8
2017-Aug-09 18:54N 51°45' E 002°39'716.2
2017-Aug-09 18:27N 51°38' E 002°45'716.3
2017-Aug-09 18:00N 51°32' E 002°52'816.4
2017-Aug-09 17:30N 51°26' E 002°60'816.4
2017-Aug-09 17:01N 51°22' E 003°11'2 3.1
2017-Aug-09 16:28N 51°20' E 003°11'0 0.0
2017-Aug-09 15:58N 51°20' E 003°11'0 0.0
2017-Aug-09 15:28N 51°20' E 003°11'0 0.0
2017-Aug-09 14:58N 51°20' E 003°11'0 0.0
2017-Aug-09 14:28N 51°20' E 003°11'0 0.0
2017-Aug-09 14:00N 51°20' E 003°11'0 0.0
2017-Aug-09 13:30N 51°20' E 003°11'0 0.0
2017-Aug-09 13:00N 51°20' E 003°11'0 0.0
2017-Aug-09 12:30N 51°20' E 003°11'0 0.0
2017-Aug-09 11:59N 51°20' E 003°11'0 0.0
2017-Aug-09 11:26N 51°20' E 003°11'0 0.0
2017-Aug-09 10:59N 51°20' E 003°11'0 0.0
2017-Aug-09 10:29N 51°20' E 003°11'0 0.0
2017-Aug-09 09:59N 51°20' E 003°11'0 0.0
2017-Aug-09 09:28N 51°20' E 003°11'0 0.0
2017-Aug-09 08:58N 51°20' E 003°11'0 0.0
2017-Aug-09 08:28N 51°20' E 003°11'0 0.0
2017-Aug-09 07:58N 51°20' E 003°11'0 0.0
2017-Aug-09 07:31N 51°20' E 003°11'0 0.0
2017-Aug-09 07:00N 51°20' E 003°11'1 2.7
2017-Aug-09 06:31N 51°22' E 003°12'714.2
2017-Aug-09 06:00N 51°25' E 003°01'815.2
2017-Aug-09 05:31N 51°29' E 002°51'815.7
2017-Aug-09 05:01N 51°35' E 002°43'714.9
2017-Aug-09 04:30N 51°42' E 002°38'4815.3
2017-Aug-09 01:22N 52°27' E 002°13'615.5
2017-Aug-09 01:00N 52°32' E 002°09'816.6
2017-Aug-09 00:31N 52°39' E 002°01'917.1
2017-Aug-09 00:00N 52°46' E 001°52'918.0
2017-Aug-08 23:30N 52°51' E 001°40'917.9
2017-Aug-08 23:01N 52°56' E 001°28'918.1
2017-Aug-08 22:31N 53°00' E 001°14'918.2
2017-Aug-08 22:00N 53°05' E 001°01'4617.5
2017-Aug-08 19:23N 53°35' E 000°03'716.9
2017-Aug-08 19:00N 53°38' W 000°07'714.6
2017-Aug-08 18:30N 53°43' W 000°15'2 3.3
2017-Aug-08 18:00N 53°45' W 000°16'0 0.1
2017-Aug-08 17:27N 53°45' W 000°16'0 0.0
2017-Aug-08 17:00N 53°45' W 000°16'0 0.0
2017-Aug-08 16:30N 53°45' W 000°16'0 0.0
2017-Aug-08 16:00N 53°45' W 000°16'0 0.0
2017-Aug-08 15:30N 53°45' W 000°16'0 0.0
2017-Aug-08 14:59N 53°45' W 000°16'0 0.0
2017-Aug-08 14:29N 53°45' W 000°16'0 0.0
2017-Aug-08 13:59N 53°45' W 000°16'0 0.0
2017-Aug-08 13:29N 53°45' W 000°16'0 0.0
2017-Aug-08 12:59N 53°45' W 000°16'0 0.0
2017-Aug-08 12:28N 53°45' W 000°16'0 0.0
2017-Aug-08 11:58N 53°45' W 000°16'0 0.0
2017-Aug-08 11:28N 53°45' W 000°16'0 0.0
2017-Aug-08 10:55N 53°45' W 000°16'0 0.0
2017-Aug-08 10:30N 53°45' W 000°16'  
Track history (hours):
 
Tides and Currents Weather Stations Pressure Air Temp Water Temp Dewpoint Dewpoint Depression Visibility Wind Speed Wind Dir Waves Ship Positions

Pride Of Bruges

Operator: P&O Ferries

Last reported at 2017-Aug-18 10:28 UTC. Time now 2017-Aug-18 10:51 UTC.
Position N 53°45' W 000°16'.

Length 180 m; draft 5.7 m.

Type: Ship. MMSI: 244387000.

Date/timePositionNaut miles runAvg speedWind from/ knotsBaromVisibWave heightAir tempDewpointWater temp
2017-Aug-18 10:28N 53°45' W 000°16'0 0.0
2017-Aug-18 09:58N 53°45' W 000°16'0 0.0
2017-Aug-18 09:28N 53°45' W 000°16'0 0.0
2017-Aug-18 08:58N 53°45' W 000°16'0 0.0
2017-Aug-18 08:30N 53°45' W 000°16'0 0.0
2017-Aug-18 08:00N 53°45' W 000°16'0 0.0
2017-Aug-18 07:30N 53°45' W 000°16'0 0.2
2017-Aug-18 07:00N 53°44' W 000°16'0 0.3
2017-Aug-18 06:30N 53°44' W 000°16'611.2
2017-Aug-18 06:00N 53°39' W 000°12'612.0
2017-Aug-18 05:30N 53°36' W 000°03'712.9
2017-Aug-18 04:59N 53°34' E 000°07'4014.2
2017-Aug-18 02:11N 53°16' E 001°07'213.2
2017-Aug-18 02:00N 53°15' E 001°10'612.9
2017-Aug-18 01:30N 53°10' E 001°17'713.6
2017-Aug-18 01:00N 53°04' E 001°24'714.4
2017-Aug-18 00:30N 52°59' E 001°32'815.3
2017-Aug-18 00:00N 52°54' E 001°41'816.0
2017-Aug-17 23:30N 52°49' E 001°51'816.3
2017-Aug-17 23:00N 52°42' E 001°58'816.4
2017-Aug-17 22:30N 52°34' E 002°05'4017.0
2017-Aug-17 20:08N 51°57' E 002°30'316.6
2017-Aug-17 19:56N 51°54' E 002°31'1816.0
2017-Aug-17 18:50N 51°38' E 002°45'515.7
2017-Aug-17 18:30N 51°34' E 002°50'815.6
2017-Aug-17 18:00N 51°28' E 002°57'714.6
2017-Aug-17 17:30N 51°24' E 003°07'5 9.0
2017-Aug-17 17:00N 51°20' E 003°11'0 0.0
2017-Aug-17 16:29N 51°20' E 003°11'0 0.0
2017-Aug-17 15:58N 51°20' E 003°11'0 0.0
2017-Aug-17 15:28N 51°20' E 003°11'0 0.0
2017-Aug-17 14:58N 51°20' E 003°11'0 0.0
2017-Aug-17 14:28N 51°20' E 003°11'0 0.0
2017-Aug-17 14:00N 51°20' E 003°11'0 0.0
2017-Aug-17 13:30N 51°20' E 003°11'0 0.0
2017-Aug-17 13:00N 51°20' E 003°11'0 0.0
2017-Aug-17 12:30N 51°20' E 003°11'0 0.0
2017-Aug-17 12:00N 51°20' E 003°11'0 0.0
2017-Aug-17 11:29N 51°20' E 003°11'0 0.0
2017-Aug-17 10:56N 51°20' E 003°11'0 0.0
2017-Aug-17 10:29N 51°20' E 003°11'0 0.0
2017-Aug-17 09:59N 51°20' E 003°11'0 0.0
2017-Aug-17 09:29N 51°20' E 003°11'0 0.0
2017-Aug-17 08:58N 51°20' E 003°11'0 0.0
2017-Aug-17 08:28N 51°20' E 003°11'0 0.0
2017-Aug-17 07:58N 51°20' E 003°11'0 0.0
2017-Aug-17 07:28N 51°20' E 003°11'2 4.3
2017-Aug-17 07:00N 51°22' E 003°11'917.1
2017-Aug-17 06:30N 51°26' E 002°59'817.0
2017-Aug-17 06:00N 51°32' E 002°48'816.4
2017-Aug-17 05:30N 51°38' E 002°40'816.7
2017-Aug-17 05:00N 51°46' E 002°36'1117.2
2017-Aug-17 04:20N 51°57' E 002°29'617.4
2017-Aug-17 04:00N 52°02' E 002°25'2017.4
2017-Aug-17 02:53N 52°20' E 002°14'817.6
2017-Aug-17 02:25N 52°28' E 002°10'717.3
2017-Aug-17 02:00N 52°35' E 002°06'917.6
2017-Aug-17 01:30N 52°43' E 002°00'816.9
2017-Aug-17 01:00N 52°49' E 001°50'917.3
2017-Aug-17 00:30N 52°52' E 001°37'917.3
2017-Aug-17 00:00N 52°57' E 001°25'917.3
2017-Aug-16 23:30N 53°00' E 001°12'916.4
2017-Aug-16 22:58N 53°06' E 000°60'3516.5
2017-Aug-16 20:51N 53°30' E 000°19'815.1
2017-Aug-16 20:20N 53°34' E 000°07'514.7
2017-Aug-16 20:00N 53°35' W 000°01'713.8
2017-Aug-16 19:30N 53°38' W 000°11'713.3
2017-Aug-16 19:00N 53°44' W 000°17'0 0.6
2017-Aug-16 18:30N 53°45' W 000°16'0 0.1
2017-Aug-16 18:00N 53°45' W 000°16'0 0.0
2017-Aug-16 17:29N 53°45' W 000°16'0 0.0
2017-Aug-16 16:59N 53°45' W 000°16'0 0.0
2017-Aug-16 16:29N 53°45' W 000°16'0 0.0
2017-Aug-16 15:58N 53°45' W 000°16'0 0.0
2017-Aug-16 15:28N 53°45' W 000°16'0 0.0
2017-Aug-16 14:58N 53°45' W 000°16'0 0.0
2017-Aug-16 14:28N 53°45' W 000°16'0 0.0
2017-Aug-16 13:58N 53°45' W 000°16'0 0.0
2017-Aug-16 13:30N 53°45' W 000°16'0 0.0
2017-Aug-16 13:00N 53°45' W 000°16'0 0.0
2017-Aug-16 12:30N 53°45' W 000°16'0 0.0
2017-Aug-16 12:00N 53°45' W 000°16'0 0.0
2017-Aug-16 11:29N 53°45' W 000°16'0 0.0
2017-Aug-16 10:59N 53°45' W 000°16'0 0.0
2017-Aug-16 10:30N 53°45' W 000°16'0 0.0
2017-Aug-16 10:00N 53°45' W 000°16'0 0.0
2017-Aug-16 09:30N 53°45' W 000°16'0 0.0
2017-Aug-16 09:00N 53°45' W 000°16'0 0.0
2017-Aug-16 08:30N 53°45' W 000°16'0 0.0
2017-Aug-16 08:00N 53°45' W 000°16'0 0.0
2017-Aug-16 07:30N 53°45' W 000°16'0 0.3
2017-Aug-16 07:00N 53°44' W 000°16'0 0.3
2017-Aug-16 06:30N 53°44' W 000°17'5 9.7
2017-Aug-16 06:00N 53°40' W 000°13'612.0
2017-Aug-16 05:30N 53°37' W 000°04'713.8
2017-Aug-16 05:00N 53°34' E 000°06'714.3
2017-Aug-16 04:30N 53°33' E 000°19'714.1
2017-Aug-16 04:00N 53°31' E 000°30'2014.7
2017-Aug-16 02:40N 53°21' E 000°58'314.3
2017-Aug-16 02:28N 53°19' E 001°02'714.1
2017-Aug-16 01:59N 53°14' E 001°09'713.8
2017-Aug-16 01:29N 53°09' E 001°17'613.2
2017-Aug-16 01:00N 53°04' E 001°24'612.6
2017-Aug-16 00:30N 52°59' E 001°31'612.4
2017-Aug-16 00:00N 52°55' E 001°38'713.0
2017-Aug-15 23:30N 52°51' E 001°47'713.7
2017-Aug-15 23:00N 52°46' E 001°54'714.4
2017-Aug-15 22:30N 52°40' E 002°02'815.2
2017-Aug-15 22:00N 52°34' E 002°08'815.7
2017-Aug-15 21:30N 52°27' E 002°14'816.0
2017-Aug-15 21:01N 52°19' E 002°18'1916.2
2017-Aug-15 19:49N 52°01' E 002°29'516.5
2017-Aug-15 19:31N 51°56' E 002°33'816.9
2017-Aug-15 19:00N 51°48' E 002°36'917.1
2017-Aug-15 18:31N 51°41' E 002°42'816.6
2017-Aug-15 18:01N 51°34' E 002°50'816.5
2017-Aug-15 17:31N 51°28' E 002°58'714.3
2017-Aug-15 17:01N 51°24' E 003°08'4 7.9
2017-Aug-15 16:30N 51°20' E 003°11'0 0.0
2017-Aug-15 16:00N 51°20' E 003°11'0 0.0
2017-Aug-15 15:30N 51°20' E 003°11'0 0.0
2017-Aug-15 14:59N 51°20' E 003°11'0 0.0
2017-Aug-15 14:29N 51°20' E 003°11'0 0.0
2017-Aug-15 13:59N 51°20' E 003°11'0 0.0
2017-Aug-15 13:29N 51°20' E 003°11'0 0.0
2017-Aug-15 12:59N 51°20' E 003°11'0 0.0
2017-Aug-15 12:28N 51°20' E 003°11'0 0.0
2017-Aug-15 11:58N 51°20' E 003°11'0 0.0
2017-Aug-15 11:28N 51°20' E 003°11'0 0.0
2017-Aug-15 10:55N 51°20' E 003°11'0 0.0
2017-Aug-15 10:30N 51°20' E 003°11'0 0.0
2017-Aug-15 10:00N 51°20' E 003°11'0 0.0
2017-Aug-15 09:30N 51°20' E 003°11'0 0.0
2017-Aug-15 09:00N 51°20' E 003°11'0 0.0
2017-Aug-15 08:30N 51°20' E 003°11'0 0.0
2017-Aug-15 07:59N 51°20' E 003°11'0 0.0
2017-Aug-15 07:29N 51°20' E 003°11'0 0.0
2017-Aug-15 06:59N 51°20' E 003°11'1 1.9
2017-Aug-15 06:31N 51°21' E 003°12'714.6
2017-Aug-15 06:00N 51°25' E 003°02'815.8
2017-Aug-15 05:30N 51°29' E 002°52'815.2
2017-Aug-15 05:01N 51°35' E 002°43'714.2
2017-Aug-15 04:30N 51°41' E 002°39'714.5
2017-Aug-15 04:00N 51°48' E 002°36'714.7
2017-Aug-15 03:30N 51°55' E 002°31'714.9
2017-Aug-15 03:00N 52°02' E 002°26'714.9
2017-Aug-15 02:30N 52°08' E 002°21'815.9
2017-Aug-15 02:00N 52°16' E 002°16'816.0
2017-Aug-15 01:30N 52°23' E 002°11'816.2
2017-Aug-15 01:00N 52°31' E 002°06'816.5
2017-Aug-15 00:30N 52°38' E 001°60'817.0
2017-Aug-15 00:00N 52°45' E 001°53'917.8
2017-Aug-14 23:30N 52°51' E 001°41'917.6
2017-Aug-14 23:00N 52°55' E 001°28'917.5
2017-Aug-14 22:30N 52°59' E 001°16'917.2
2017-Aug-14 22:00N 53°04' E 001°03'4116.8
2017-Aug-14 19:33N 53°32' E 000°14'114.5
2017-Aug-14 19:29N 53°33' E 000°12'714.1
2017-Aug-14 19:00N 53°35' E 000°02'713.7
2017-Aug-14 18:30N 53°38' W 000°09'611.4
2017-Aug-14 18:00N 53°43' W 000°14'2 4.3
2017-Aug-14 17:30N 53°44' W 000°16'0 0.3
2017-Aug-14 17:00N 53°45' W 000°16'0 0.0
2017-Aug-14 16:30N 53°45' W 000°16'0 0.0
2017-Aug-14 16:00N 53°45' W 000°16'0 0.0
2017-Aug-14 15:30N 53°45' W 000°16'0 0.0
2017-Aug-14 15:00N 53°45' W 000°16'0 0.0
2017-Aug-14 14:17N 53°45' W 000°16'0 0.0
2017-Aug-14 13:59N 53°45' W 000°16'0 0.0
2017-Aug-14 13:26N 53°45' W 000°16'0 0.0
2017-Aug-14 12:59N 53°45' W 000°16'0 0.0
2017-Aug-14 12:28N 53°45' W 000°16'0 0.0
2017-Aug-14 11:58N 53°45' W 000°16'0 0.0
2017-Aug-14 11:28N 53°45' W 000°16'0 0.0
2017-Aug-14 10:58N 53°45' W 000°16'0 0.0
2017-Aug-14 10:28N 53°45' W 000°16'0 0.0
2017-Aug-14 10:00N 53°45' W 000°16'0 0.0
2017-Aug-14 09:30N 53°45' W 000°16'0 0.0
2017-Aug-14 09:00N 53°45' W 000°16'0 0.0
2017-Aug-14 08:30N 53°45' W 000°16'0 0.0
2017-Aug-14 07:59N 53°45' W 000°16'0 0.0
2017-Aug-14 07:29N 53°45' W 000°16'0 0.2
2017-Aug-14 07:00N 53°45' W 000°16'1 2.1
2017-Aug-14 06:30N 53°44' W 000°15'714.6
2017-Aug-14 06:00N 53°38' W 000°08'917.0
2017-Aug-14 05:30N 53°34' E 000°05'816.2
2017-Aug-14 05:00N 53°33' E 000°19'714.9
2017-Aug-14 04:30N 53°30' E 000°30'1514.4
2017-Aug-14 03:27N 53°23' E 000°52'913.8
2017-Aug-14 02:48N 53°18' E 001°05'413.4
2017-Aug-14 02:30N 53°15' E 001°09'713.0
2017-Aug-14 02:00N 53°10' E 001°16'613.1
2017-Aug-14 01:30N 53°05' E 001°24'612.8
2017-Aug-14 01:00N 53°00' E 001°31'713.0
2017-Aug-14 00:30N 52°55' E 001°38'612.8
2017-Aug-14 00:00N 52°51' E 001°45'612.7
2017-Aug-13 23:30N 52°46' E 001°52'813.0
2017-Aug-13 22:55N 52°40' E 002°00'613.4
2017-Aug-13 22:30N 52°36' E 002°06'713.9
2017-Aug-13 22:00N 52°30' E 002°11'814.7
2017-Aug-13 21:29N 52°23' E 002°17'815.4
2017-Aug-13 20:58N 52°15' E 002°19'715.8
2017-Aug-13 20:30N 52°08' E 002°23'2916.2
2017-Aug-13 18:43N 51°41' E 002°41'516.2
2017-Aug-13 18:26N 51°37' E 002°45'715.8
2017-Aug-13 18:01N 51°32' E 002°52'815.7
2017-Aug-13 17:31N 51°26' E 002°59'714.6
2017-Aug-13 17:01N 51°23' E 003°10'3 5.3
2017-Aug-13 16:31N 51°20' E 003°11'0 0.0
2017-Aug-13 15:58N 51°20' E 003°11'0 0.0
2017-Aug-13 15:30N 51°20' E 003°11'0 0.0
2017-Aug-13 15:00N 51°20' E 003°11'0 0.0
2017-Aug-13 14:30N 51°20' E 003°11'0 0.0
2017-Aug-13 14:00N 51°20' E 003°11'0 0.0
2017-Aug-13 13:29N 51°20' E 003°11'0 0.0
2017-Aug-13 12:59N 51°20' E 003°11'0 0.0
2017-Aug-13 12:29N 51°20' E 003°11'0 0.0
2017-Aug-13 11:59N 51°20' E 003°11'0 0.0
2017-Aug-13 11:29N 51°20' E 003°11'0 0.0
2017-Aug-13 10:58N 51°20' E 003°11'0 0.0
2017-Aug-13 10:28N 51°20' E 003°11'0 0.0
2017-Aug-13 09:58N 51°20' E 003°11'0 0.0
2017-Aug-13 09:28N 51°20' E 003°11'0 0.0
2017-Aug-13 08:58N 51°20' E 003°11'0 0.0
2017-Aug-13 08:30N 51°20' E 003°11'0 0.0
2017-Aug-13 08:00N 51°20' E 003°11'0 0.0
2017-Aug-13 07:30N 51°20' E 003°11'1 1.9
2017-Aug-13 07:00N 51°21' E 003°12'612.9
2017-Aug-13 06:30N 51°24' E 003°04'713.3
2017-Aug-13 06:00N 51°27' E 002°54'713.4
2017-Aug-13 05:30N 51°32' E 002°46'713.3
2017-Aug-13 05:00N 51°37' E 002°40'913.4
2017-Aug-13 04:19N 51°47' E 002°38'514.2
2017-Aug-13 03:59N 51°51' E 002°35'914.0
2017-Aug-13 03:23N 51°59' E 002°29'814.1
2017-Aug-13 02:47N 52°06' E 002°24'2515.5
2017-Aug-13 01:11N 52°29' E 002°08'316.3
2017-Aug-13 01:01N 52°32' E 002°06'816.1
2017-Aug-13 00:31N 52°39' E 002°00'816.2
2017-Aug-13 00:01N 52°46' E 001°52'816.6
2017-Aug-12 23:31N 52°50' E 001°41'816.6
2017-Aug-12 23:01N 52°55' E 001°30'816.6
2017-Aug-12 22:31N 52°59' E 001°18'816.5
2017-Aug-12 22:00N 53°03' E 001°05'5215.6
2017-Aug-12 18:41N 53°36' W 000°02'314.0
2017-Aug-12 18:27N 53°37' W 000°07'510.6
2017-Aug-12 18:00N 53°40' W 000°13'5 9.7
2017-Aug-12 17:30N 53°44' W 000°16'0 0.4
2017-Aug-12 17:00N 53°45' W 000°16'0 0.2
2017-Aug-12 16:28N 53°45' W 000°16'0 0.0
2017-Aug-12 15:58N 53°45' W 000°16'0 0.0
2017-Aug-12 15:31N 53°45' W 000°16'0 0.0
2017-Aug-12 15:00N 53°45' W 000°16'0 0.0
2017-Aug-12 14:30N 53°45' W 000°16'0 0.0
2017-Aug-12 14:00N 53°45' W 000°16'0 0.0
2017-Aug-12 13:30N 53°45' W 000°16'0 0.0
2017-Aug-12 12:59N 53°45' W 000°16'0 0.0
2017-Aug-12 12:29N 53°45' W 000°16'0 0.0
2017-Aug-12 11:59N 53°45' W 000°16'0 0.0
2017-Aug-12 11:29N 53°45' W 000°16'0 0.0
2017-Aug-12 10:59N 53°45' W 000°16'0 0.0
2017-Aug-12 10:28N 53°45' W 000°16'0 0.0
2017-Aug-12 09:58N 53°45' W 000°16'0 0.0
2017-Aug-12 09:28N 53°45' W 000°16'0 0.0
2017-Aug-12 08:58N 53°45' W 000°16'0 0.0
2017-Aug-12 08:30N 53°45' W 000°16'0 0.0
2017-Aug-12 08:00N 53°45' W 000°16'0 0.1
2017-Aug-12 07:30N 53°45' W 000°16'1 1.4
2017-Aug-12 07:00N 53°44' W 000°16'815.5
2017-Aug-12 06:30N 53°38' W 000°08'4514.6
2017-Aug-12 03:28N 53°20' E 001°00'816.2
2017-Aug-12 03:00N 53°14' E 001°09'816.3
2017-Aug-12 02:30N 53°08' E 001°18'816.0
2017-Aug-12 02:00N 53°02' E 001°27'815.5
2017-Aug-12 01:30N 52°57' E 001°36'714.7
2017-Aug-12 01:00N 52°52' E 001°45'714.4
2017-Aug-12 00:30N 52°47' E 001°54'713.1
2017-Aug-12 00:00N 52°42' E 002°01'713.0
2017-Aug-11 23:30N 52°36' E 002°05'2112.9
2017-Aug-11 21:51N 52°17' E 002°22'513.1
2017-Aug-11 21:30N 52°13' E 002°25'1013.3
2017-Aug-11 20:46N 52°04' E 002°31'1014.4
2017-Aug-11 20:03N 51°55' E 002°39'214.6
2017-Aug-11 19:53N 51°53' E 002°39'614.3
2017-Aug-11 19:30N 51°47' E 002°38'814.9
2017-Aug-11 18:59N 51°40' E 002°42'714.8
2017-Aug-11 18:30N 51°34' E 002°49'714.9
2017-Aug-11 18:01N 51°29' E 002°57'713.6
2017-Aug-11 17:30N 51°24' E 003°05'611.1
2017-Aug-11 17:00N 51°21' E 003°12'1 1.1
2017-Aug-11 16:30N 51°20' E 003°11'0 0.0
2017-Aug-11 16:00N 51°20' E 003°11'0 0.0
2017-Aug-11 15:29N 51°20' E 003°11'0 0.0
2017-Aug-11 14:59N 51°20' E 003°11'0 0.0
2017-Aug-11 14:29N 51°20' E 003°11'0 0.0
2017-Aug-11 13:29N 51°20' E 003°11'0 0.0
2017-Aug-11 12:59N 51°20' E 003°11'0 0.0
2017-Aug-11 12:28N 51°20' E 003°11'0 0.0
2017-Aug-11 11:58N 51°20' E 003°11'0 0.0
2017-Aug-11 11:28N 51°20' E 003°11'0 0.0
2017-Aug-11 11:00N 51°20' E 003°11'0 0.0
2017-Aug-11 10:30N 51°20' E 003°11'0 0.0
2017-Aug-11 10:00N 51°20' E 003°11'0 0.0
2017-Aug-11 09:30N 51°20' E 003°11'0 0.0
2017-Aug-11 09:00N 51°20' E 003°11'0 0.0
2017-Aug-11 08:29N 51°20' E 003°11'0 0.0
2017-Aug-11 07:59N 51°20' E 003°11'0 0.0
2017-Aug-11 07:29N 51°20' E 003°11'0 0.0
2017-Aug-11 06:59N 51°20' E 003°11'2 3.2
2017-Aug-11 06:30N 51°22' E 003°11'714.7
2017-Aug-11 06:00N 51°25' E 003°01'815.5
2017-Aug-11 05:30N 51°30' E 002°51'815.7
2017-Aug-11 05:00N 51°35' E 002°42'5615.0
2017-Aug-11 01:17N 52°28' E 002°10'516.3
2017-Aug-11 00:58N 52°32' E 002°06'816.5
2017-Aug-11 00:30N 52°39' E 001°60'918.0
2017-Aug-11 00:00N 52°46' E 001°51'918.8
2017-Aug-10 23:30N 52°52' E 001°38'918.7
2017-Aug-10 23:00N 52°57' E 001°26'918.9
2017-Aug-10 22:30N 53°01' E 001°11'4517.5
2017-Aug-10 19:57N 53°31' E 000°17'715.5
2017-Aug-10 19:30N 53°34' E 000°06'714.9
2017-Aug-10 19:00N 53°37' W 000°05'612.6
2017-Aug-10 18:30N 53°41' W 000°13'4 7.7
2017-Aug-10 18:00N 53°44' W 000°16'0 0.2
2017-Aug-10 17:28N 53°45' W 000°16'0 0.0
2017-Aug-10 17:00N 53°45' W 000°16'0 0.0
2017-Aug-10 16:30N 53°45' W 000°16'0 0.0
2017-Aug-10 16:00N 53°45' W 000°16'0 0.0
2017-Aug-10 15:30N 53°45' W 000°16'0 0.0
2017-Aug-10 15:00N 53°45' W 000°16'0 0.0
2017-Aug-10 14:29N 53°45' W 000°16'0 0.0
2017-Aug-10 13:29N 53°45' W 000°16'0 0.0
2017-Aug-10 12:59N 53°45' W 000°16'0 0.0
2017-Aug-10 12:29N 53°45' W 000°16'0 0.0
2017-Aug-10 11:58N 53°45' W 000°16'0 0.0
2017-Aug-10 11:28N 53°45' W 000°16'0 0.0
2017-Aug-10 10:58N 53°45' W 000°16'0 0.0
2017-Aug-10 10:28N 53°45' W 000°16'0 0.0
2017-Aug-10 10:00N 53°45' W 000°16'0 0.0
2017-Aug-10 09:30N 53°45' W 000°16'0 0.0
2017-Aug-10 09:00N 53°45' W 000°16'0 0.0
2017-Aug-10 08:30N 53°45' W 000°16'0 0.0
2017-Aug-10 08:00N 53°45' W 000°16'0 0.3
2017-Aug-10 07:30N 53°45' W 000°16'0 0.9
2017-Aug-10 07:00N 53°44' W 000°16'3 6.3
2017-Aug-10 06:30N 53°41' W 000°14'5 9.9
2017-Aug-10 06:00N 53°38' W 000°08'916.9
2017-Aug-10 05:29N 53°34' E 000°06'3713.5
2017-Aug-10 02:47N 53°19' E 001°01'415.4
2017-Aug-10 02:30N 53°16' E 001°06'816.3
2017-Aug-10 02:01N 53°09' E 001°15'816.3
2017-Aug-10 01:30N 53°03' E 001°24'816.0
2017-Aug-10 01:01N 52°58' E 001°33'815.5
2017-Aug-10 00:30N 52°53' E 001°43'714.3
2017-Aug-10 00:00N 52°47' E 001°51'714.0
2017-Aug-09 23:30N 52°42' E 001°59'713.5
2017-Aug-09 23:00N 52°37' E 002°05'5313.5
2017-Aug-09 19:07N 51°48' E 002°37'315.8
2017-Aug-09 18:54N 51°45' E 002°39'716.2
2017-Aug-09 18:27N 51°38' E 002°45'716.3
2017-Aug-09 18:00N 51°32' E 002°52'816.4
2017-Aug-09 17:30N 51°26' E 002°60'816.4
2017-Aug-09 17:01N 51°22' E 003°11'2 3.1
2017-Aug-09 16:28N 51°20' E 003°11'0 0.0
2017-Aug-09 15:58N 51°20' E 003°11'0 0.0
2017-Aug-09 15:28N 51°20' E 003°11'0 0.0
2017-Aug-09 14:58N 51°20' E 003°11'0 0.0
2017-Aug-09 14:28N 51°20' E 003°11'0 0.0
2017-Aug-09 14:00N 51°20' E 003°11'0 0.0
2017-Aug-09 13:30N 51°20' E 003°11'0 0.0
2017-Aug-09 13:00N 51°20' E 003°11'0 0.0
2017-Aug-09 12:30N 51°20' E 003°11'0 0.0
2017-Aug-09 11:59N 51°20' E 003°11'0 0.0
2017-Aug-09 11:26N 51°20' E 003°11'0 0.0
2017-Aug-09 10:59N 51°20' E 003°11'0 0.0
2017-Aug-09 10:29N 51°20' E 003°11'0 0.0
2017-Aug-09 09:59N 51°20' E 003°11'0 0.0
2017-Aug-09 09:28N 51°20' E 003°11'0 0.0
2017-Aug-09 08:58N 51°20' E 003°11'0 0.0
2017-Aug-09 08:28N 51°20' E 003°11'0 0.0
2017-Aug-09 07:58N 51°20' E 003°11'0 0.0
2017-Aug-09 07:31N 51°20' E 003°11'0 0.0
2017-Aug-09 07:00N 51°20' E 003°11'1 2.7
2017-Aug-09 06:31N 51°22' E 003°12'714.2
2017-Aug-09 06:00N 51°25' E 003°01'815.2
2017-Aug-09 05:31N 51°29' E 002°51'815.7
2017-Aug-09 05:01N 51°35' E 002°43'714.9
2017-Aug-09 04:30N 51°42' E 002°38'4815.3
2017-Aug-09 01:22N 52°27' E 002°13'615.5
2017-Aug-09 01:00N 52°32' E 002°09'816.6
2017-Aug-09 00:31N 52°39' E 002°01'917.1
2017-Aug-09 00:00N 52°46' E 001°52'918.0
2017-Aug-08 23:30N 52°51' E 001°40'917.9
2017-Aug-08 23:01N 52°56' E 001°28'918.1
2017-Aug-08 22:31N 53°00' E 001°14'918.2
2017-Aug-08 22:00N 53°05' E 001°01'4617.5
2017-Aug-08 19:23N 53°35' E 000°03'716.9
2017-Aug-08 19:00N 53°38' W 000°07'714.6
2017-Aug-08 18:30N 53°43' W 000°15'2 3.3
2017-Aug-08 18:00N 53°45' W 000°16'0 0.1
2017-Aug-08 17:27N 53°45' W 000°16'0 0.0
2017-Aug-08 17:00N 53°45' W 000°16'0 0.0
2017-Aug-08 16:30N 53°45' W 000°16'0 0.0
2017-Aug-08 16:00N 53°45' W 000°16'0 0.0
2017-Aug-08 15:30N 53°45' W 000°16'0 0.0
2017-Aug-08 14:59N 53°45' W 000°16'0 0.0
2017-Aug-08 14:29N 53°45' W 000°16'0 0.0
2017-Aug-08 13:59N 53°45' W 000°16'0 0.0
2017-Aug-08 13:29N 53°45' W 000°16'0 0.0
2017-Aug-08 12:59N 53°45' W 000°16'0 0.0
2017-Aug-08 12:28N 53°45' W 000°16'0 0.0
2017-Aug-08 11:58N 53°45' W 000°16'0 0.0
2017-Aug-08 11:28N 53°45' W 000°16'0 0.0
2017-Aug-08 10:55N 53°45' W 000°16'0 0.0
2017-Aug-08 10:30N 53°45' W 000°16'  

Dump ship's entire track history